createdAt,value
2017-02-15T00:00:07.894Z,1022.07
2017-02-15T00:01:07.908Z,1022.08
2017-02-15T00:02:07.918Z,1022.07
2017-02-15T00:03:07.922Z,1022.06
2017-02-15T00:04:07.940Z,1022.07
2017-02-15T00:05:07.953Z,1022.09
2017-02-15T00:06:07.973Z,1022.09
2017-02-15T00:07:07.978Z,1022.11
2017-02-15T00:08:07.983Z,1022.12
2017-02-15T00:09:07.991Z,1022.07
2017-02-15T00:10:08.011Z,1022.05
2017-02-15T00:11:08.021Z,1022
2017-02-15T00:12:08.033Z,1022.04
2017-02-15T00:13:08.044Z,1022
2017-02-15T00:14:08.048Z,1021.98
2017-02-15T00:15:08.067Z,1021.99
2017-02-15T00:16:08.078Z,1021.95
2017-02-15T00:17:08.090Z,1021.94
2017-02-15T00:18:08.099Z,1021.93
2017-02-15T00:19:08.111Z,1021.91
2017-02-15T00:20:08.128Z,1021.9
2017-02-15T00:21:08.133Z,1021.9
2017-02-15T00:22:08.146Z,1021.93
2017-02-15T00:23:08.158Z,1021.91
2017-02-15T00:24:08.168Z,1021.9
2017-02-15T00:25:08.174Z,1021.86
2017-02-15T00:26:08.189Z,1021.88
2017-02-15T00:27:08.200Z,1021.85
2017-02-15T00:28:08.211Z,1021.84
2017-02-15T00:29:08.223Z,1021.87
2017-02-15T00:30:08.235Z,1021.87
2017-02-15T00:31:08.240Z,1021.84
2017-02-15T00:32:08.250Z,1021.85
2017-02-15T00:33:08.269Z,1021.84
2017-02-15T00:34:08.274Z,1021.84
2017-02-15T00:35:08.298Z,1021.84
2017-02-15T00:36:08.303Z,1021.82
2017-02-15T00:37:08.308Z,1021.82
2017-02-15T00:38:08.328Z,1021.82
2017-02-15T00:39:08.336Z,1021.84
2017-02-15T00:40:08.351Z,1021.87
2017-02-15T00:41:08.353Z,1021.83
2017-02-15T00:42:08.371Z,1021.82
2017-02-15T00:43:08.380Z,1021.83
2017-02-15T00:44:08.392Z,1021.85
2017-02-15T00:45:08.403Z,1021.87
2017-02-15T00:46:08.415Z,1021.82
2017-02-15T00:47:08.425Z,1021.83
2017-02-15T00:48:08.429Z,1021.79
2017-02-15T00:49:08.483Z,1021.81
2017-02-15T00:50:08.454Z,1021.8
2017-02-15T00:51:08.469Z,1021.81
2017-02-15T00:52:08.482Z,1021.83
2017-02-15T00:53:08.487Z,1021.84
2017-02-15T00:54:08.516Z,1021.82
2017-02-15T00:55:08.515Z,1021.84
2017-02-15T00:56:08.531Z,1021.86
2017-02-15T00:57:08.531Z,1021.87
2017-02-15T00:58:08.560Z,1021.89
2017-02-15T00:59:08.559Z,1021.88
2017-02-15T01:00:08.591Z,1021.9
2017-02-15T01:01:08.576Z,1021.87
2017-02-15T01:02:08.592Z,1021.86
2017-02-15T01:03:08.604Z,1021.82
2017-02-15T01:04:08.610Z,1021.88
2017-02-15T01:05:08.619Z,1021.85
2017-02-15T01:06:08.637Z,1021.85
2017-02-15T01:07:08.644Z,1021.84
2017-02-15T01:08:08.661Z,1021.83
2017-02-15T01:09:08.674Z,1021.84
2017-02-15T01:10:08.683Z,1021.85
2017-02-15T01:11:08.694Z,1021.81
2017-02-15T01:12:08.726Z,1021.78
2017-02-15T01:13:08.715Z,1021.82
2017-02-15T01:14:08.721Z,1021.83
2017-02-15T01:15:08.737Z,1021.82
2017-02-15T01:16:08.741Z,1021.84
2017-02-15T01:17:08.760Z,1021.81
2017-02-15T01:18:08.772Z,1021.79
2017-02-15T01:19:08.889Z,1021.83
2017-02-15T01:20:08.819Z,1021.83
2017-02-15T01:21:08.820Z,1021.8
2017-02-15T01:22:08.817Z,1021.82
2017-02-15T01:23:08.828Z,1021.83
2017-02-15T01:24:08.838Z,1021.84
2017-02-15T01:25:08.851Z,1021.81
2017-02-15T01:26:08.919Z,1021.84
2017-02-15T01:27:08.918Z,1021.83
2017-02-15T01:28:08.922Z,1021.82
2017-02-15T01:29:08.930Z,1021.79
2017-02-15T01:30:08.939Z,1021.82
2017-02-15T01:31:08.954Z,1021.79
2017-02-15T01:32:08.952Z,1021.79
2017-02-15T01:33:08.960Z,1021.79
2017-02-15T01:34:08.973Z,1021.79
2017-02-15T01:35:09.018Z,1021.8
2017-02-15T01:36:08.996Z,1021.78
2017-02-15T01:37:09.064Z,1021.82
2017-02-15T01:38:09.075Z,1021.79
2017-02-15T01:39:09.087Z,1021.77
2017-02-15T01:40:09.076Z,1021.8
2017-02-15T01:41:09.101Z,1021.78
2017-02-15T01:42:09.110Z,1021.8
2017-02-15T01:43:09.122Z,1021.78
2017-02-15T01:44:09.127Z,1021.86
2017-02-15T01:45:09.135Z,1021.79
2017-02-15T01:46:09.069Z,1021.82
2017-02-15T01:47:09.087Z,1021.81
2017-02-15T01:48:09.098Z,1021.84
2017-02-15T01:49:09.111Z,1021.81
2017-02-15T01:50:09.119Z,1021.86
2017-02-15T01:51:09.131Z,1021.81
2017-02-15T01:52:09.140Z,1021.79
2017-02-15T01:53:09.145Z,1021.81
2017-02-15T01:54:09.234Z,1021.8
2017-02-15T01:55:09.173Z,1021.83
2017-02-15T01:56:09.185Z,1021.86
2017-02-15T01:57:09.189Z,1021.85
2017-02-15T01:58:09.207Z,1021.83
2017-02-15T01:59:09.216Z,1021.83
2017-02-15T02:00:09.227Z,1021.79
2017-02-15T02:01:09.239Z,1021.85
2017-02-15T02:02:09.249Z,1021.81
2017-02-15T02:03:09.260Z,1021.75
2017-02-15T02:04:09.271Z,1021.77
2017-02-15T02:05:09.310Z,1021.72
2017-02-15T02:06:09.293Z,1021.73
2017-02-15T02:07:09.305Z,1021.77
2017-02-15T02:08:09.312Z,1021.71
2017-02-15T02:09:09.324Z,1021.73
2017-02-15T02:10:09.423Z,1021.75
2017-02-15T02:11:09.339Z,1021.72
2017-02-15T02:12:09.358Z,1021.72
2017-02-15T02:13:09.368Z,1021.77
2017-02-15T02:14:09.377Z,1021.75
2017-02-15T02:15:09.388Z,1021.74
2017-02-15T02:16:09.392Z,1021.77
2017-02-15T02:17:09.410Z,1021.78
2017-02-15T02:18:09.420Z,1021.78
2017-02-15T02:19:09.430Z,1021.74
2017-02-15T02:20:09.442Z,1021.72
2017-02-15T02:21:09.453Z,1021.76
2017-02-15T02:22:09.462Z,1021.75
2017-02-15T02:23:09.473Z,1021.75
2017-02-15T02:24:09.485Z,1021.81
2017-02-15T02:25:09.494Z,1021.76
2017-02-15T02:26:09.500Z,1021.79
2017-02-15T02:27:09.517Z,1021.8
2017-02-15T02:28:09.526Z,1021.79
2017-02-15T02:29:09.536Z,1021.78
2017-02-15T02:30:09.541Z,1021.82
2017-02-15T02:31:09.553Z,1021.79
2017-02-15T02:32:09.565Z,1021.82
2017-02-15T02:33:09.579Z,1021.8
2017-02-15T02:34:09.592Z,1021.8
2017-02-15T02:35:09.594Z,1021.81
2017-02-15T02:36:09.611Z,1021.8
2017-02-15T02:37:09.621Z,1021.82
2017-02-15T02:38:09.632Z,1021.81
2017-02-15T02:39:09.644Z,1021.86
2017-02-15T02:40:09.646Z,1021.87
2017-02-15T02:41:09.664Z,1021.89
2017-02-15T02:42:09.675Z,1021.87
2017-02-15T02:43:09.685Z,1021.89
2017-02-15T02:44:09.695Z,1021.88
2017-02-15T02:45:09.706Z,1021.9
2017-02-15T02:46:09.717Z,1021.9
2017-02-15T02:47:09.727Z,1021.89
2017-02-15T02:48:09.732Z,1021.93
2017-02-15T02:49:09.748Z,1021.88
2017-02-15T02:50:09.760Z,1021.85
2017-02-15T02:51:09.769Z,1021.86
2017-02-15T02:52:09.783Z,1021.84
2017-02-15T02:53:09.791Z,1021.84
2017-02-15T02:54:09.803Z,1021.8
2017-02-15T02:55:09.811Z,1021.84
2017-02-15T02:56:09.822Z,1021.85
2017-02-15T02:57:09.832Z,1021.85
2017-02-15T02:58:09.843Z,1021.83
2017-02-15T02:59:09.854Z,1021.86
2017-02-15T03:00:09.857Z,1021.91
2017-02-15T03:02:09.888Z,1021.86
2017-02-15T03:03:09.898Z,1021.87
2017-02-15T03:04:09.906Z,1021.88
2017-02-15T03:05:09.925Z,1021.88
2017-02-15T03:06:09.927Z,1021.88
2017-02-15T03:07:09.931Z,1021.95
2017-02-15T03:08:09.947Z,1021.93
2017-02-15T03:09:09.958Z,1021.9
2017-02-15T03:10:09.968Z,1021.96
2017-02-15T03:11:09.979Z,1021.89
2017-02-15T03:12:09.984Z,1021.87
2017-02-15T03:13:09.998Z,1021.91
2017-02-15T03:14:10.003Z,1021.96
2017-02-15T03:15:10.017Z,1021.96
2017-02-15T03:16:10.032Z,1021.95
2017-02-15T03:17:10.043Z,1021.93
2017-02-15T03:18:10.055Z,1021.96
2017-02-15T03:19:10.065Z,1021.98
2017-02-15T03:20:10.073Z,1021.97
2017-02-15T03:21:10.083Z,1021.99
2017-02-15T03:22:10.086Z,1022.01
2017-02-15T03:23:10.104Z,1022.02
2017-02-15T03:24:10.108Z,1022
2017-02-15T03:25:10.119Z,1021.96
2017-02-15T03:26:10.131Z,1022.01
2017-02-15T03:27:10.145Z,1022
2017-02-15T03:28:10.157Z,1021.99
2017-02-15T03:29:10.165Z,1021.99
2017-02-15T03:30:10.176Z,1021.98
2017-02-15T03:31:10.189Z,1021.96
2017-02-15T03:32:10.198Z,1022.01
2017-02-15T03:33:10.208Z,1021.98
2017-02-15T03:34:10.219Z,1022.04
2017-02-15T03:35:10.228Z,1022.02
2017-02-15T03:36:10.237Z,1022.01
2017-02-15T03:37:10.248Z,1022.02
2017-02-15T03:38:10.260Z,1021.99
2017-02-15T03:39:10.263Z,1022.01
2017-02-15T03:40:10.274Z,1022.01
2017-02-15T03:41:10.290Z,1021.99
2017-02-15T03:42:10.293Z,1022
2017-02-15T03:43:10.312Z,1022.03
2017-02-15T03:44:10.325Z,1021.99
2017-02-15T03:45:10.333Z,1022
2017-02-15T03:46:10.341Z,1022
2017-02-15T03:47:10.351Z,1021.99
2017-02-15T03:48:10.446Z,1021.97
2017-02-15T03:49:10.372Z,1021.95
2017-02-15T03:50:10.382Z,1021.98
2017-02-15T03:51:10.392Z,1021.94
2017-02-15T03:52:10.404Z,1021.95
2017-02-15T03:53:10.413Z,1021.98
2017-02-15T03:54:10.424Z,1022.02
2017-02-15T03:55:10.434Z,1021.98
2017-02-15T03:56:10.438Z,1022.01
2017-02-15T03:57:10.451Z,1022
2017-02-15T03:58:10.465Z,1022.01
2017-02-15T03:59:10.468Z,1022.03
2017-02-15T04:00:10.485Z,1021.98
2017-02-15T04:01:10.495Z,1021.99
2017-02-15T04:02:10.498Z,1022
2017-02-15T04:03:10.517Z,1022.01
2017-02-15T04:04:10.528Z,1021.98
2017-02-15T04:05:10.531Z,1021.98
2017-02-15T04:06:10.551Z,1022.01
2017-02-15T04:07:10.558Z,1022.03
2017-02-15T04:08:10.566Z,1022
2017-02-15T04:09:10.579Z,1022.01
2017-02-15T04:10:10.591Z,1021.98
2017-02-15T04:11:10.592Z,1021.98
2017-02-15T04:12:10.607Z,1022.01
2017-02-15T04:13:10.611Z,1022
2017-02-15T04:14:10.630Z,1022.04
2017-02-15T04:15:10.632Z,1022.02
2017-02-15T04:16:10.647Z,1022.03
2017-02-15T04:17:10.658Z,1022.03
2017-02-15T04:18:10.669Z,1022
2017-02-15T04:19:10.678Z,1022.01
2017-02-15T04:20:10.689Z,1022
2017-02-15T04:21:10.699Z,1022
2017-02-15T04:22:10.708Z,1022.03
2017-02-15T04:23:10.719Z,1022.02
2017-02-15T04:24:10.729Z,1022.02
2017-02-15T04:25:10.733Z,1022.04
2017-02-15T04:26:10.749Z,1022.03
2017-02-15T04:27:10.759Z,1022.03
2017-02-15T04:28:10.769Z,1022.03
2017-02-15T04:29:10.773Z,1022.01
2017-02-15T04:30:10.783Z,1021.98
2017-02-15T04:31:10.795Z,1021.99
2017-02-15T04:32:10.809Z,1021.96
2017-02-15T04:33:10.820Z,1022.02
2017-02-15T04:34:10.829Z,1021.98
2017-02-15T04:35:10.839Z,1021.98
2017-02-15T04:36:10.853Z,1021.96
2017-02-15T04:37:10.854Z,1021.96
2017-02-15T04:38:10.863Z,1021.93
2017-02-15T04:39:10.880Z,1021.98
2017-02-15T04:40:10.884Z,1021.92
2017-02-15T04:41:10.900Z,1021.92
2017-02-15T04:42:10.905Z,1021.93
2017-02-15T04:43:10.921Z,1021.87
2017-02-15T04:44:10.931Z,1021.92
2017-02-15T04:45:10.942Z,1021.88
2017-02-15T04:46:10.944Z,1021.9
2017-02-15T04:47:10.960Z,1021.89
2017-02-15T04:48:10.969Z,1021.91
2017-02-15T04:49:10.980Z,1021.88
2017-02-15T04:50:10.992Z,1021.9
2017-02-15T04:51:10.994Z,1021.94
2017-02-15T04:52:11.011Z,1021.89
2017-02-15T04:53:11.021Z,1021.89
2017-02-15T04:54:11.025Z,1021.89
2017-02-15T04:55:11.037Z,1021.9
2017-02-15T04:56:11.045Z,1021.88
2017-02-15T04:57:11.064Z,1021.87
2017-02-15T04:58:11.067Z,1021.87
2017-02-15T04:59:11.084Z,1021.88
2017-02-15T05:00:11.093Z,1021.89
2017-02-15T05:01:11.133Z,1021.9
2017-02-15T05:02:11.114Z,1021.92
2017-02-15T05:03:11.121Z,1021.9
2017-02-15T05:04:11.132Z,1021.89
2017-02-15T05:05:11.141Z,1021.89
2017-02-15T05:06:11.147Z,1021.88
2017-02-15T05:07:11.155Z,1021.91
2017-02-15T05:08:11.166Z,1021.86
2017-02-15T05:09:11.174Z,1021.84
2017-02-15T05:10:11.182Z,1021.86
2017-02-15T05:11:11.194Z,1021.84
2017-02-15T05:12:11.210Z,1021.81
2017-02-15T05:13:11.214Z,1021.87
2017-02-15T05:14:11.222Z,1021.83
2017-02-15T05:15:11.241Z,1021.78
2017-02-15T05:16:11.250Z,1021.83
2017-02-15T05:17:11.259Z,1021.78
2017-02-15T05:18:11.270Z,1021.82
2017-02-15T05:19:11.281Z,1021.77
2017-02-15T05:20:11.283Z,1021.78
2017-02-15T05:21:11.298Z,1021.79
2017-02-15T05:22:11.309Z,1021.76
2017-02-15T05:23:11.314Z,1021.79
2017-02-15T05:24:11.333Z,1021.79
2017-02-15T05:25:11.335Z,1021.75
2017-02-15T05:26:11.341Z,1021.79
2017-02-15T05:27:11.354Z,1021.79
2017-02-15T05:28:11.366Z,1021.76
2017-02-15T05:29:11.381Z,1021.79
2017-02-15T05:30:11.381Z,1021.78
2017-02-15T05:31:11.398Z,1021.75
2017-02-15T05:32:11.399Z,1021.76
2017-02-15T05:33:11.419Z,1021.78
2017-02-15T05:34:11.420Z,1021.75
2017-02-15T05:35:11.431Z,1021.77
2017-02-15T05:36:11.442Z,1021.77
2017-02-15T05:37:11.459Z,1021.8
2017-02-15T05:38:11.461Z,1021.79
2017-02-15T05:39:11.476Z,1021.74
2017-02-15T05:40:11.484Z,1021.75
2017-02-15T05:41:11.494Z,1021.75
2017-02-15T05:42:11.509Z,1021.74
2017-02-15T05:43:11.515Z,1021.77
2017-02-15T05:44:11.525Z,1021.79
2017-02-15T05:45:11.534Z,1021.82
2017-02-15T05:46:11.544Z,1021.77
2017-02-15T05:47:11.549Z,1021.77
2017-02-15T05:48:11.557Z,1021.76
2017-02-15T05:49:11.570Z,1021.75
2017-02-15T05:50:11.587Z,1021.76
2017-02-15T05:51:11.638Z,1021.76
2017-02-15T05:52:11.606Z,1021.75
2017-02-15T05:53:11.617Z,1021.75
2017-02-15T05:54:11.616Z,1021.78
2017-02-15T05:55:11.625Z,1021.74
2017-02-15T05:56:11.641Z,1021.8
2017-02-15T05:57:11.655Z,1021.8
2017-02-15T05:58:11.661Z,1021.83
2017-02-15T05:59:11.669Z,1021.84
2017-02-15T06:00:11.682Z,1021.82
2017-02-15T06:01:11.691Z,1021.85
2017-02-15T06:02:11.700Z,1021.82
2017-02-15T06:03:11.709Z,1021.86
2017-02-15T06:04:11.714Z,1021.84
2017-02-15T06:05:11.724Z,1021.86
2017-02-15T06:06:11.740Z,1021.83
2017-02-15T06:07:11.743Z,1021.86
2017-02-15T06:08:11.758Z,1021.85
2017-02-15T06:09:11.769Z,1021.87
2017-02-15T06:10:11.780Z,1021.87
2017-02-15T06:11:11.787Z,1021.87
2017-02-15T06:12:11.798Z,1021.86
2017-02-15T06:13:11.808Z,1021.86
2017-02-15T06:14:11.816Z,1021.84
2017-02-15T06:15:11.828Z,1021.86
2017-02-15T06:16:11.837Z,1021.87
2017-02-15T06:17:11.842Z,1021.89
2017-02-15T06:18:11.856Z,1021.88
2017-02-15T06:19:11.859Z,1021.93
2017-02-15T06:20:11.875Z,1021.94
2017-02-15T06:21:11.878Z,1021.88
2017-02-15T06:22:11.896Z,1021.89
2017-02-15T06:23:11.904Z,1021.91
2017-02-15T06:24:11.913Z,1021.93
2017-02-15T06:25:11.925Z,1021.91
2017-02-15T06:26:11.933Z,1021.92
2017-02-15T06:27:11.937Z,1021.95
2017-02-15T06:28:11.949Z,1021.98
2017-02-15T06:29:11.966Z,1021.99
2017-02-15T06:30:11.978Z,1022.01
2017-02-15T06:31:11.985Z,1022.02
2017-02-15T06:32:11.991Z,1022
2017-02-15T06:33:12.002Z,1021.99
2017-02-15T06:34:12.005Z,1021.98
2017-02-15T06:35:12.099Z,1021.97
2017-02-15T06:36:12.032Z,1021.98
2017-02-15T06:37:12.044Z,1021.98
2017-02-15T06:38:12.050Z,1021.98
2017-02-15T06:39:12.060Z,1021.95
2017-02-15T06:40:12.071Z,1021.98
2017-02-15T06:41:12.078Z,1021.99
2017-02-15T06:42:12.094Z,1022.01
2017-02-15T06:43:12.093Z,1021.96
2017-02-15T06:44:12.101Z,1021.99
2017-02-15T06:45:12.110Z,1021.99
2017-02-15T06:46:12.142Z,1021.97
2017-02-15T06:47:12.137Z,1022.03
2017-02-15T06:48:12.147Z,1022.03
2017-02-15T06:49:12.157Z,1022.01
2017-02-15T06:50:12.159Z,1022.08
2017-02-15T06:51:12.176Z,1022.07
2017-02-15T06:52:12.184Z,1022.06
2017-02-15T06:53:12.197Z,1022.11
2017-02-15T06:54:12.208Z,1022.1
2017-02-15T06:55:12.216Z,1022.09
2017-02-15T06:56:12.216Z,1022.09
2017-02-15T06:57:12.232Z,1022.13
2017-02-15T06:58:12.244Z,1022.11
2017-02-15T06:59:12.253Z,1022.13
2017-02-15T07:00:12.255Z,1022.12
2017-02-15T07:01:12.267Z,1022.12
2017-02-15T07:02:12.275Z,1022.11
2017-02-15T07:03:12.290Z,1022.12
2017-02-15T07:04:12.305Z,1022.12
2017-02-15T07:05:12.310Z,1022.14
2017-02-15T07:06:12.324Z,1022.13
2017-02-15T07:07:12.333Z,1022.14
2017-02-15T07:08:12.341Z,1022.18
2017-02-15T07:09:12.352Z,1022.15
2017-02-15T07:10:12.359Z,1022.2
2017-02-15T07:11:12.372Z,1022.22
2017-02-15T07:12:12.377Z,1022.18
2017-02-15T07:13:12.387Z,1022.25
2017-02-15T07:14:12.396Z,1022.28
2017-02-15T07:15:12.401Z,1022.27
2017-02-15T07:16:12.416Z,1022.3
2017-02-15T07:17:12.426Z,1022.33
2017-02-15T07:18:12.437Z,1022.37
2017-02-15T07:19:12.446Z,1022.36
2017-02-15T07:20:12.459Z,1022.33
2017-02-15T07:21:12.463Z,1022.33
2017-02-15T07:22:12.467Z,1022.36
2017-02-15T07:23:12.488Z,1022.35
2017-02-15T07:24:12.488Z,1022.34
2017-02-15T07:25:12.499Z,1022.41
2017-02-15T07:26:12.513Z,1022.38
2017-02-15T07:27:12.521Z,1022.35
2017-02-15T07:28:12.534Z,1022.36
2017-02-15T07:29:12.542Z,1022.39
2017-02-15T07:30:12.545Z,1022.36
2017-02-15T07:31:12.562Z,1022.36
2017-02-15T07:32:12.566Z,1022.34
2017-02-15T07:33:12.582Z,1022.4
2017-02-15T07:34:12.591Z,1022.39
2017-02-15T07:35:12.631Z,1022.43
2017-02-15T07:36:12.612Z,1022.41
2017-02-15T07:37:12.619Z,1022.45
2017-02-15T07:38:12.630Z,1022.44
2017-02-15T07:39:12.643Z,1022.47
2017-02-15T07:40:12.647Z,1022.45
2017-02-15T07:41:12.651Z,1022.49
2017-02-15T07:42:12.669Z,1022.43
2017-02-15T07:43:12.671Z,1022.44
2017-02-15T07:44:12.687Z,1022.44
2017-02-15T07:45:12.693Z,1022.49
2017-02-15T07:46:12.711Z,1022.48
2017-02-15T07:47:12.716Z,1022.46
2017-02-15T07:48:12.745Z,1022.53
2017-02-15T07:49:12.739Z,1022.49
2017-02-15T07:50:12.748Z,1022.54
2017-02-15T07:51:12.756Z,1022.53
2017-02-15T07:52:12.766Z,1022.56
2017-02-15T07:53:12.777Z,1022.56
2017-02-15T07:54:12.778Z,1022.57
2017-02-15T07:55:12.788Z,1022.57
2017-02-15T07:56:12.809Z,1022.59
2017-02-15T07:57:12.851Z,1022.56
2017-02-15T07:58:12.819Z,1022.56
2017-02-15T07:59:12.827Z,1022.54
2017-02-15T08:00:12.837Z,1022.56
2017-02-15T08:01:12.853Z,1022.54
2017-02-15T08:02:12.868Z,1022.58
2017-02-15T08:03:12.872Z,1022.6
2017-02-15T08:04:12.877Z,1022.58
2017-02-15T08:05:12.892Z,1022.57
2017-02-15T08:06:12.902Z,1022.61
2017-02-15T08:07:12.907Z,1022.55
2017-02-15T08:08:12.918Z,1022.58
2017-02-15T08:09:12.931Z,1022.54
2017-02-15T08:10:12.942Z,1022.56
2017-02-15T08:11:12.946Z,1022.56
2017-02-15T08:12:12.967Z,1022.55
2017-02-15T08:13:12.975Z,1022.55
2017-02-15T08:14:12.981Z,1022.55
2017-02-15T08:15:12.985Z,1022.52
2017-02-15T08:16:12.996Z,1022.55
2017-02-15T08:17:13.012Z,1022.52
2017-02-15T08:18:13.021Z,1022.54
2017-02-15T08:19:13.032Z,1022.55
2017-02-15T08:20:13.041Z,1022.54
2017-02-15T08:21:13.045Z,1022.56
2017-02-15T08:22:13.055Z,1022.56
2017-02-15T08:23:13.068Z,1022.57
2017-02-15T08:24:13.081Z,1022.54
2017-02-15T08:25:13.086Z,1022.57
2017-02-15T08:26:13.096Z,1022.55
2017-02-15T08:27:13.111Z,1022.55
2017-02-15T08:28:13.122Z,1022.55
2017-02-15T08:29:13.128Z,1022.54
2017-02-15T08:30:13.143Z,1022.6
2017-02-15T08:31:13.152Z,1022.62
2017-02-15T08:32:13.160Z,1022.64
2017-02-15T08:33:13.171Z,1022.69
2017-02-15T08:34:13.181Z,1022.71
2017-02-15T08:35:13.186Z,1022.7
2017-02-15T08:36:13.196Z,1022.7
2017-02-15T08:37:13.208Z,1022.69
2017-02-15T08:38:13.224Z,1022.74
2017-02-15T08:39:13.237Z,1022.73
2017-02-15T08:40:13.242Z,1022.71
2017-02-15T08:41:13.261Z,1022.76
2017-02-15T08:42:13.257Z,1022.75
2017-02-15T08:43:13.281Z,1022.79
2017-02-15T08:44:13.288Z,1022.78
2017-02-15T08:45:13.294Z,1022.78
2017-02-15T08:46:13.307Z,1022.77
2017-02-15T08:47:13.366Z,1022.75
2017-02-15T08:48:13.327Z,1022.76
2017-02-15T08:49:13.337Z,1022.78
2017-02-15T08:50:13.349Z,1022.8
2017-02-15T08:51:13.354Z,1022.79
2017-02-15T08:52:13.367Z,1022.76
2017-02-15T08:53:13.371Z,1022.78
2017-02-15T08:54:13.380Z,1022.76
2017-02-15T08:55:13.400Z,1022.79
2017-02-15T08:56:13.413Z,1022.81
2017-02-15T08:57:13.417Z,1022.77
2017-02-15T08:58:13.422Z,1022.76
2017-02-15T08:59:13.444Z,1022.77
2017-02-15T09:00:13.444Z,1022.77
2017-02-15T09:01:13.463Z,1022.75
2017-02-15T09:02:13.471Z,1022.76
2017-02-15T09:03:13.479Z,1022.79
2017-02-15T09:04:13.493Z,1022.76
2017-02-15T09:05:13.498Z,1022.75
2017-02-15T09:06:13.515Z,1022.75
2017-02-15T09:07:13.523Z,1022.78
2017-02-15T09:08:13.537Z,1022.76
2017-02-15T09:09:13.550Z,1022.77
2017-02-15T09:10:13.557Z,1022.73
2017-02-15T09:11:13.566Z,1022.71
2017-02-15T09:12:13.578Z,1022.74
2017-02-15T09:13:13.591Z,1022.71
2017-02-15T09:14:13.593Z,1022.71
2017-02-15T09:15:13.610Z,1022.69
2017-02-15T09:16:13.617Z,1022.71
2017-02-15T09:17:13.625Z,1022.7
2017-02-15T09:18:13.644Z,1022.67
2017-02-15T09:19:13.649Z,1022.67
2017-02-15T09:20:13.669Z,1022.68
2017-02-15T09:21:13.676Z,1022.68
2017-02-15T09:22:13.729Z,1022.64
2017-02-15T09:23:13.695Z,1022.63
2017-02-15T09:24:13.709Z,1022.65
2017-02-15T09:25:13.722Z,1022.67
2017-02-15T09:26:13.724Z,1022.66
2017-02-15T09:27:13.744Z,1022.61
2017-02-15T09:28:13.754Z,1022.61
2017-02-15T09:29:13.756Z,1022.66
2017-02-15T09:30:13.777Z,1022.65
2017-02-15T09:31:13.779Z,1022.62
2017-02-15T09:32:13.797Z,1022.63
2017-02-15T09:33:13.810Z,1022.62
2017-02-15T09:34:13.822Z,1022.59
2017-02-15T09:35:13.826Z,1022.56
2017-02-15T09:36:13.843Z,1022.59
2017-02-15T09:37:13.855Z,1022.59
2017-02-15T09:38:13.858Z,1022.58
2017-02-15T09:39:13.920Z,1022.54
2017-02-15T09:40:13.889Z,1022.58
2017-02-15T09:41:13.899Z,1022.58
2017-02-15T09:42:13.911Z,1022.59
2017-02-15T09:43:13.915Z,1022.61
2017-02-15T09:44:13.933Z,1022.59
2017-02-15T09:45:13.940Z,1022.6
2017-02-15T09:46:13.954Z,1022.59
2017-02-15T09:47:13.960Z,1022.59
2017-02-15T09:48:13.977Z,1022.55
2017-02-15T09:49:13.991Z,1022.59
2017-02-15T09:50:14.003Z,1022.59
2017-02-15T09:51:14.013Z,1022.61
2017-02-15T09:52:14.025Z,1022.61
2017-02-15T09:53:14.037Z,1022.61
2017-02-15T09:54:14.043Z,1022.59
2017-02-15T09:55:14.052Z,1022.64
2017-02-15T09:56:14.064Z,1022.65
2017-02-15T09:57:14.082Z,1022.62
2017-02-15T09:58:14.094Z,1022.64
2017-02-15T09:59:14.099Z,1022.64
2017-02-15T10:00:14.113Z,1022.65
2017-02-15T10:01:14.122Z,1022.65
2017-02-15T10:02:14.141Z,1022.65
2017-02-15T10:03:14.145Z,1022.66
2017-02-15T10:04:14.173Z,1022.66
2017-02-15T10:05:14.170Z,1022.66
2017-02-15T10:06:14.189Z,1022.67
2017-02-15T10:07:14.203Z,1022.68
2017-02-15T10:08:14.205Z,1022.7
2017-02-15T10:09:14.225Z,1022.66
2017-02-15T10:10:14.231Z,1022.7
2017-02-15T10:11:14.240Z,1022.69
2017-02-15T10:12:14.252Z,1022.66
2017-02-15T10:13:14.272Z,1022.66
2017-02-15T10:14:14.284Z,1022.65
2017-02-15T10:15:14.295Z,1022.65
2017-02-15T10:16:14.306Z,1022.63
2017-02-15T10:17:14.317Z,1022.69
2017-02-15T10:18:14.324Z,1022.64
2017-02-15T10:19:14.343Z,1022.63
2017-02-15T10:20:14.352Z,1022.6
2017-02-15T10:21:14.369Z,1022.62
2017-02-15T10:22:14.371Z,1022.61
2017-02-15T10:23:14.390Z,1022.61
2017-02-15T10:24:14.404Z,1022.64
2017-02-15T10:25:14.414Z,1022.57
2017-02-15T10:26:14.430Z,1022.58
2017-02-15T10:27:14.432Z,1022.57
2017-02-15T10:28:14.444Z,1022.54
2017-02-15T10:29:14.456Z,1022.53
2017-02-15T10:30:14.476Z,1022.56
2017-02-15T10:31:14.489Z,1022.53
2017-02-15T10:32:14.498Z,1022.5
2017-02-15T10:33:14.513Z,1022.46
2017-02-15T10:34:14.520Z,1022.46
2017-02-15T10:35:14.530Z,1022.44
2017-02-15T10:36:14.548Z,1022.48
2017-02-15T10:37:14.562Z,1022.48
2017-02-15T10:38:14.574Z,1022.46
2017-02-15T10:39:14.586Z,1022.44
2017-02-15T10:40:14.599Z,1022.47
2017-02-15T10:41:14.612Z,1022.47
2017-02-15T10:42:14.616Z,1022.48
2017-02-15T10:43:14.638Z,1022.47
2017-02-15T10:44:14.642Z,1022.43
2017-02-15T10:45:14.655Z,1022.46
2017-02-15T10:46:14.674Z,1022.42
2017-02-15T10:47:14.685Z,1022.43
2017-02-15T10:48:14.748Z,1022.39
2017-02-15T10:49:14.712Z,1022.36
2017-02-15T10:50:14.724Z,1022.35
2017-02-15T10:51:14.739Z,1022.36
2017-02-15T10:52:14.752Z,1022.32
2017-02-15T10:53:14.762Z,1022.28
2017-02-15T10:54:14.777Z,1022.28
2017-02-15T10:55:14.787Z,1022.25
2017-02-15T10:56:14.793Z,1022.21
2017-02-15T10:57:14.812Z,1022.21
2017-02-15T10:58:14.825Z,1022.22
2017-02-15T10:59:14.840Z,1022.18
2017-02-15T11:00:14.857Z,1022.17
2017-02-15T11:01:14.858Z,1022.17
2017-02-15T11:02:14.871Z,1022.15
2017-02-15T11:03:14.883Z,1022.15
2017-02-15T11:04:14.901Z,1022.12
2017-02-15T11:05:14.916Z,1022.1
2017-02-15T11:06:14.922Z,1022.07
2017-02-15T11:07:14.942Z,1022.07
2017-02-15T11:08:14.953Z,1022.02
2017-02-15T11:09:14.967Z,1022.02
2017-02-15T11:10:14.982Z,1022.06
2017-02-15T11:11:14.987Z,1022
2017-02-15T11:12:15.045Z,1022.02
2017-02-15T11:13:15.017Z,1021.99
2017-02-15T11:14:15.025Z,1021.99
2017-02-15T11:15:15.038Z,1022
2017-02-15T11:16:15.061Z,1021.99
2017-02-15T11:17:15.072Z,1021.98
2017-02-15T11:18:15.081Z,1021.98
2017-02-15T11:19:15.097Z,1021.92
2017-02-15T11:20:15.213Z,1021.95
2017-02-15T11:21:15.127Z,1021.97
2017-02-15T11:22:15.131Z,1021.95
2017-02-15T11:23:15.202Z,1021.95
2017-02-15T11:24:15.163Z,1021.9
2017-02-15T11:25:15.172Z,1021.93
2017-02-15T11:26:15.190Z,1021.92
2017-02-15T11:27:15.205Z,1021.84
2017-02-15T11:28:15.215Z,1021.86
2017-02-15T11:29:15.230Z,1021.88
2017-02-15T11:30:15.244Z,1021.84
2017-02-15T11:31:15.257Z,1021.87
2017-02-15T11:32:15.274Z,1021.88
2017-02-15T11:33:15.283Z,1021.91
2017-02-15T11:34:15.297Z,1021.89
2017-02-15T11:35:15.311Z,1021.85
2017-02-15T11:36:15.325Z,1021.86
2017-02-15T11:37:15.332Z,1021.84
2017-02-15T11:38:15.354Z,1021.85
2017-02-15T11:39:15.369Z,1021.82
2017-02-15T11:40:15.380Z,1021.82
2017-02-15T11:41:15.386Z,1021.82
2017-02-15T11:42:15.401Z,1021.8
2017-02-15T11:43:15.414Z,1021.77
2017-02-15T11:44:15.436Z,1021.71
2017-02-15T11:45:15.443Z,1021.72
2017-02-15T11:46:15.462Z,1021.73
2017-02-15T11:47:15.476Z,1021.79
2017-02-15T11:48:15.488Z,1021.75
2017-02-15T11:49:15.507Z,1021.72
2017-02-15T11:50:15.521Z,1021.73
2017-02-15T11:51:15.532Z,1021.7
2017-02-15T11:52:15.538Z,1021.7
2017-02-15T11:53:15.561Z,1021.74
2017-02-15T11:54:15.575Z,1021.73
2017-02-15T11:55:15.580Z,1021.75
2017-02-15T11:56:15.605Z,1021.71
2017-02-15T11:57:15.615Z,1021.72
2017-02-15T11:58:15.631Z,1021.7
2017-02-15T11:59:15.643Z,1021.69
2017-02-15T12:00:15.655Z,1021.68
2017-02-15T12:01:15.672Z,1021.69
2017-02-15T12:02:15.680Z,1021.68
2017-02-15T12:03:15.700Z,1021.71
2017-02-15T12:04:15.715Z,1021.7
2017-02-15T12:05:15.730Z,1021.65
2017-02-15T12:06:15.746Z,1021.66
2017-02-15T12:07:15.752Z,1021.66
2017-02-15T12:08:15.934Z,1021.63
2017-02-15T12:09:15.781Z,1021.68